createdAt,value
2018-09-28T00:01:06.677Z,11.70
2018-09-28T00:03:35.127Z,11.70
2018-09-28T00:06:03.617Z,11.70
2018-09-28T00:08:32.064Z,11.70
2018-09-28T00:11:00.521Z,11.70
2018-09-28T00:13:29.051Z,11.70
2018-09-28T00:15:57.495Z,11.70
2018-09-28T00:18:25.929Z,11.70
2018-09-28T00:20:54.362Z,11.70
2018-09-28T00:23:22.877Z,11.70
2018-09-28T00:25:51.357Z,11.70
2018-09-28T00:28:19.819Z,11.70
2018-09-28T00:30:48.297Z,11.70
2018-09-28T00:33:16.742Z,11.70
2018-09-28T00:35:45.191Z,11.70
2018-09-28T00:38:13.673Z,11.70
2018-09-28T00:40:42.146Z,11.70
2018-09-28T00:43:10.628Z,11.60
2018-09-28T00:45:39.097Z,11.60
2018-09-28T00:48:07.584Z,11.60
2018-09-28T00:50:36.033Z,11.60
2018-09-28T00:53:04.535Z,11.70
2018-09-28T00:55:32.956Z,11.70
2018-09-28T00:58:01.393Z,11.70
2018-09-28T01:00:29.860Z,11.70
2018-09-28T01:02:58.321Z,11.70
2018-09-28T01:05:26.769Z,11.70
2018-09-28T01:07:55.648Z,11.70
2018-09-28T01:10:24.093Z,11.70
2018-09-28T01:12:52.563Z,11.70
2018-09-28T01:15:21.015Z,11.70
2018-09-28T01:17:49.466Z,11.70
2018-09-28T01:20:17.922Z,11.70
2018-09-28T01:22:46.496Z,11.70
2018-09-28T01:25:14.999Z,11.70
2018-09-28T01:27:43.474Z,11.80
2018-09-28T01:30:12.004Z,11.80
2018-09-28T01:32:40.442Z,11.80
2018-09-28T01:35:09.018Z,11.80
2018-09-28T01:37:37.470Z,11.80
2018-09-28T01:40:05.952Z,11.80
2018-09-28T01:42:34.382Z,11.80
2018-09-28T01:45:02.843Z,11.90
2018-09-28T01:47:31.327Z,11.90
2018-09-28T01:49:59.755Z,11.90
2018-09-28T01:52:28.221Z,12.00
2018-09-28T01:54:56.675Z,12.00
2018-09-28T01:57:25.119Z,12.00
2018-09-28T01:59:53.592Z,12.00
2018-09-28T02:02:22.015Z,12.00
2018-09-28T02:04:51.085Z,12.00
2018-09-28T02:07:19.568Z,12.00
2018-09-28T02:09:48.389Z,12.00
2018-09-28T02:12:16.802Z,12.10
2018-09-28T02:14:45.262Z,12.10
2018-09-28T02:17:13.697Z,12.20
2018-09-28T02:19:42.201Z,12.20
2018-09-28T02:22:10.623Z,12.10
2018-09-28T02:24:39.045Z,12.10
2018-09-28T02:27:07.532Z,12.10
2018-09-28T02:29:35.980Z,12.10
2018-09-28T02:32:04.426Z,12.00
2018-09-28T02:34:32.857Z,12.00
2018-09-28T02:37:01.422Z,11.90
2018-09-28T02:39:29.865Z,11.90
2018-09-28T02:41:58.473Z,11.80
2018-09-28T02:44:26.969Z,11.80
2018-09-28T02:46:55.429Z,11.80
2018-09-28T02:49:23.919Z,11.80
2018-09-28T02:51:52.401Z,11.70
2018-09-28T02:54:21.169Z,11.70
2018-09-28T02:56:49.632Z,11.70
2018-09-28T02:59:18.088Z,11.60
2018-09-28T03:01:46.551Z,11.60
2018-09-28T03:04:14.978Z,11.60
2018-09-28T03:06:43.423Z,11.50
2018-09-28T03:09:11.861Z,11.50
2018-09-28T03:11:40.413Z,11.50
2018-09-28T03:14:08.879Z,11.50
2018-09-28T03:16:37.325Z,11.50
2018-09-28T03:19:05.777Z,11.50
2018-09-28T03:21:34.243Z,11.50
2018-09-28T03:24:02.767Z,11.40
2018-09-28T03:26:31.185Z,11.50
2018-09-28T03:28:59.623Z,11.40
2018-09-28T03:31:28.071Z,11.40
2018-09-28T03:33:56.514Z,11.40
2018-09-28T03:36:25.077Z,11.40
2018-09-28T03:38:53.505Z,11.40
2018-09-28T03:41:21.977Z,11.40
2018-09-28T03:43:50.421Z,11.40
2018-09-28T03:46:18.901Z,11.40
2018-09-28T03:48:53.765Z,11.30
2018-09-28T03:51:22.269Z,11.30
2018-09-28T03:53:50.687Z,11.30
2018-09-28T03:56:19.237Z,11.30
2018-09-28T03:58:47.671Z,11.30
2018-09-28T04:01:16.110Z,11.30
2018-09-28T04:03:44.560Z,11.40
2018-09-28T04:06:13.012Z,11.40
2018-09-28T04:08:41.445Z,11.40
2018-09-28T04:11:09.926Z,11.40
2018-09-28T04:13:38.380Z,11.50
2018-09-28T04:16:06.862Z,11.50
2018-09-28T04:18:35.325Z,11.50
2018-09-28T04:21:03.810Z,11.50
2018-09-28T04:23:32.268Z,11.60
2018-09-28T04:26:00.747Z,11.60
2018-09-28T04:28:29.264Z,11.60
2018-09-28T04:30:57.678Z,11.50
2018-09-28T04:33:26.130Z,11.50
2018-09-28T04:35:54.555Z,11.50
2018-09-28T04:38:29.829Z,11.50
2018-09-28T04:40:58.268Z,11.50
2018-09-28T04:43:26.724Z,11.50
2018-09-28T04:45:55.190Z,11.50
2018-09-28T04:48:23.628Z,11.50
2018-09-28T04:50:52.069Z,11.50
2018-09-28T04:53:20.498Z,11.50
2018-09-28T04:55:48.926Z,11.50
2018-09-28T04:58:17.380Z,11.50
2018-09-28T05:00:45.862Z,11.50
2018-09-28T05:03:14.310Z,11.50
2018-09-28T05:05:42.908Z,11.50
2018-09-28T05:08:11.358Z,11.60
2018-09-28T05:10:39.788Z,11.60
2018-09-28T05:13:08.369Z,11.60
2018-09-28T05:15:36.852Z,11.60
2018-09-28T05:18:05.378Z,11.60
2018-09-28T05:20:33.919Z,11.60
2018-09-28T05:23:02.442Z,11.60
2018-09-28T05:25:30.907Z,11.50
2018-09-28T05:27:59.382Z,11.50
2018-09-28T05:30:27.808Z,11.50
2018-09-28T05:32:56.391Z,11.50
2018-09-28T05:35:24.807Z,11.50
2018-09-28T05:37:53.633Z,11.50
2018-09-28T05:40:22.075Z,11.50
2018-09-28T05:42:50.540Z,11.50
2018-09-28T05:45:19.020Z,11.40
2018-09-28T05:47:47.469Z,11.40
2018-09-28T05:50:15.940Z,11.40
2018-09-28T05:52:44.440Z,11.40
2018-09-28T05:55:12.883Z,11.50
2018-09-28T05:57:41.417Z,11.50
2018-09-28T06:00:15.256Z,11.60
2018-09-28T06:02:48.982Z,11.60
2018-09-28T06:05:22.933Z,11.60
2018-09-28T06:07:51.357Z,11.60
2018-09-28T06:10:19.824Z,11.60
2018-09-28T06:12:48.289Z,11.60
2018-09-28T06:15:16.731Z,11.70
2018-09-28T06:17:45.271Z,11.70
2018-09-28T06:20:13.736Z,11.80
2018-09-28T06:22:42.216Z,11.90
2018-09-28T06:25:10.649Z,11.90
2018-09-28T06:27:39.109Z,12.00
2018-09-28T06:30:07.671Z,12.00
2018-09-28T06:32:36.097Z,12.10
2018-09-28T06:35:04.730Z,12.00
2018-09-28T06:37:33.181Z,12.10
2018-09-28T06:40:01.619Z,12.20
2018-09-28T06:42:32.847Z,12.20
2018-09-28T06:45:01.285Z,12.30
2018-09-28T06:47:29.771Z,12.30
2018-09-28T06:49:58.252Z,12.30
2018-09-28T06:52:26.972Z,12.40
2018-09-28T06:54:55.445Z,12.50
2018-09-28T06:57:23.917Z,12.60
2018-09-28T06:59:52.436Z,12.60
2018-09-28T07:02:20.930Z,12.70
2018-09-28T07:04:49.382Z,12.70
2018-09-28T07:07:17.858Z,12.80
2018-09-28T07:09:46.309Z,12.80
2018-09-28T07:12:14.870Z,12.90
2018-09-28T07:14:43.333Z,12.90
2018-09-28T07:17:11.907Z,13.00
2018-09-28T07:19:40.711Z,13.00
2018-09-28T07:22:09.161Z,13.10
2018-09-28T07:24:38.490Z,13.10
2018-09-28T07:27:06.954Z,13.10
2018-09-28T07:29:35.431Z,13.20
2018-09-28T07:32:03.927Z,13.20
2018-09-28T07:34:32.377Z,13.30
2018-09-28T07:37:00.913Z,13.30
2018-09-28T07:39:29.324Z,13.40
2018-09-28T07:41:57.856Z,13.40
2018-09-28T07:44:26.306Z,13.40
2018-09-28T07:46:54.816Z,13.40
2018-09-28T07:49:23.408Z,13.40
2018-09-28T07:51:51.850Z,13.50
2018-09-28T07:54:20.331Z,13.50
2018-09-28T07:56:48.794Z,13.50
2018-09-28T07:59:17.223Z,13.50
2018-09-28T08:01:45.666Z,13.50
2018-09-28T08:04:14.183Z,13.50
2018-09-28T08:06:42.633Z,13.50
2018-09-28T08:09:11.688Z,13.50
2018-09-28T08:11:40.187Z,13.50
2018-09-28T08:14:09.127Z,13.40
2018-09-28T08:16:38.144Z,13.50
2018-09-28T08:19:06.900Z,13.50
2018-09-28T08:21:35.524Z,13.50
2018-09-28T08:24:03.986Z,13.60
2018-09-28T08:26:32.495Z,13.60
2018-09-28T08:29:00.993Z,13.60
2018-09-28T08:31:29.479Z,13.70
2018-09-28T08:33:57.960Z,13.70
2018-09-28T08:36:26.529Z,13.70
2018-09-28T08:38:54.930Z,13.70
2018-09-28T08:41:23.396Z,13.80
2018-09-28T08:43:51.801Z,13.80
2018-09-28T08:46:20.711Z,13.80
2018-09-28T08:48:49.194Z,13.80
2018-09-28T08:51:17.745Z,13.80
2018-09-28T08:53:46.274Z,13.70
2018-09-28T08:56:14.742Z,13.70
2018-09-28T08:58:43.300Z,13.70
2018-09-28T09:01:11.756Z,13.70
2018-09-28T09:03:41.440Z,13.60
2018-09-28T09:06:09.938Z,13.70
2018-09-28T09:08:38.402Z,13.70
2018-09-28T09:11:06.900Z,13.70
2018-09-28T09:13:35.382Z,13.70
2018-09-28T09:16:03.855Z,13.80
2018-09-28T09:18:32.296Z,13.80
2018-09-28T09:21:00.729Z,13.90
2018-09-28T09:23:29.197Z,14.00
2018-09-28T09:25:57.672Z,14.20
2018-09-28T09:28:26.159Z,14.20
2018-09-28T09:30:54.616Z,14.30
2018-09-28T09:33:23.096Z,14.40
2018-09-28T09:35:51.564Z,14.50
2018-09-28T09:38:19.993Z,14.40
2018-09-28T09:40:48.534Z,14.30
2018-09-28T09:43:17.019Z,14.20
2018-09-28T09:45:45.466Z,14.10
2018-09-28T09:48:13.956Z,14.10
2018-09-28T09:50:42.379Z,14.00
2018-09-28T09:53:10.810Z,14.00
2018-09-28T09:55:39.315Z,14.10
2018-09-28T09:58:07.839Z,14.00
2018-09-28T10:00:41.676Z,14.10
2018-09-28T10:03:15.409Z,14.20
2018-09-28T10:05:43.867Z,14.10
2018-09-28T10:08:12.325Z,14.10
2018-09-28T10:10:40.741Z,14.20
2018-09-28T10:13:09.189Z,14.10
2018-09-28T10:15:37.648Z,14.10
2018-09-28T10:18:05.814Z,14.20
2018-09-28T10:20:34.249Z,14.20
2018-09-28T10:23:02.701Z,14.20
2018-09-28T10:25:31.152Z,14.20
2018-09-28T10:27:59.975Z,14.20
2018-09-28T10:30:28.433Z,14.10
2018-09-28T10:32:56.901Z,14.10
2018-09-28T10:35:25.393Z,14.10
2018-09-28T10:37:53.987Z,14.10
2018-09-28T10:40:22.514Z,14.10
2018-09-28T10:42:50.980Z,14.00
2018-09-28T10:45:19.459Z,13.90
2018-09-28T10:47:47.897Z,13.90
2018-09-28T10:50:16.389Z,14.00
2018-09-28T10:52:45.020Z,14.10
2018-09-28T10:55:13.409Z,14.10
2018-09-28T10:57:41.904Z,14.10
2018-09-28T11:00:10.437Z,14.10
2018-09-28T11:02:38.925Z,14.10
2018-09-28T11:05:07.428Z,14.10
2018-09-28T11:07:35.858Z,14.10
2018-09-28T11:10:04.483Z,14.20
2018-09-28T11:12:32.965Z,14.10
2018-09-28T11:15:01.414Z,14.20
2018-09-28T11:17:29.859Z,14.10
2018-09-28T11:19:58.308Z,14.20
2018-09-28T11:22:26.779Z,14.30
2018-09-28T11:24:55.252Z,14.30
2018-09-28T11:27:23.783Z,14.30
2018-09-28T11:29:52.208Z,14.20
2018-09-28T11:32:20.696Z,14.20
2018-09-28T11:34:49.172Z,14.20
2018-09-28T11:37:17.730Z,14.40
2018-09-28T11:39:46.205Z,14.40
2018-09-28T11:42:14.640Z,14.50
2018-09-28T11:44:43.086Z,14.50
2018-09-28T11:47:11.598Z,14.50
2018-09-28T11:49:40.057Z,14.50
2018-09-28T11:52:08.528Z,14.60
2018-09-28T11:54:37.022Z,14.60
2018-09-28T11:57:05.492Z,14.50
2018-09-28T11:59:33.940Z,14.50
2018-09-28T12:02:02.396Z,14.50
2018-09-28T12:04:30.915Z,14.50
2018-09-28T12:07:06.032Z,14.60
2018-09-28T12:09:34.520Z,14.70
2018-09-28T12:12:02.998Z,14.60
2018-09-28T12:14:31.505Z,14.60
2018-09-28T12:16:59.996Z,14.70
2018-09-28T12:19:28.606Z,14.80
2018-09-28T12:21:57.201Z,14.90
2018-09-28T12:24:25.694Z,15.00
2018-09-28T12:26:54.093Z,15.10
2018-09-28T12:29:22.566Z,15.30
2018-09-28T12:31:51.060Z,15.30
2018-09-28T12:34:19.512Z,15.40
2018-09-28T12:36:48.022Z,15.40
2018-09-28T12:39:16.554Z,15.50
2018-09-28T12:41:44.973Z,15.50
2018-09-28T12:44:13.501Z,15.60
2018-09-28T12:46:41.917Z,15.50
2018-09-28T12:49:10.375Z,15.50
2018-09-28T12:51:38.834Z,15.50
2018-09-28T12:54:07.444Z,15.40
2018-09-28T12:56:35.971Z,15.40
2018-09-28T12:59:04.512Z,15.40
2018-09-28T13:01:32.986Z,15.40
2018-09-28T13:04:01.456Z,15.30
2018-09-28T13:06:29.921Z,15.50
2018-09-28T13:08:58.389Z,15.70
2018-09-28T13:11:26.858Z,15.80
2018-09-28T13:13:55.326Z,15.90
2018-09-28T13:16:23.807Z,15.90
2018-09-28T13:18:52.391Z,15.80
2018-09-28T13:21:20.835Z,15.90
2018-09-28T13:23:49.296Z,16.00
2018-09-28T13:26:17.872Z,16.00
2018-09-28T13:28:46.354Z,16.00
2018-09-28T13:31:14.866Z,15.90
2018-09-28T13:33:43.319Z,16.00
2018-09-28T13:36:11.795Z,16.10
2018-09-28T13:38:40.383Z,16.30
2018-09-28T13:41:08.773Z,16.40
2018-09-28T13:43:37.289Z,16.30
2018-09-28T13:46:05.878Z,16.40
2018-09-28T13:48:34.582Z,16.20
2018-09-28T13:51:03.069Z,16.00
2018-09-28T13:53:31.559Z,16.00
2018-09-28T13:56:00.099Z,16.20
2018-09-28T13:58:28.598Z,16.30
2018-09-28T14:00:57.081Z,16.30
2018-09-28T14:03:25.785Z,16.30
2018-09-28T14:05:54.455Z,16.10
2018-09-28T14:08:23.048Z,15.90
2018-09-28T14:10:51.506Z,15.90
2018-09-28T14:13:19.937Z,15.90
2018-09-28T14:15:48.441Z,15.80
2018-09-28T14:18:16.976Z,15.80
2018-09-28T14:20:45.519Z,15.80
2018-09-28T14:23:13.985Z,15.60
2018-09-28T14:25:42.503Z,15.60
2018-09-28T14:28:11.004Z,15.70
2018-09-28T14:30:39.531Z,15.80
2018-09-28T14:33:08.065Z,15.80
2018-09-28T14:35:36.650Z,15.90
2018-09-28T14:38:05.187Z,15.90
2018-09-28T14:40:33.663Z,16.00
2018-09-28T14:43:02.242Z,16.00
2018-09-28T14:45:30.785Z,16.00
2018-09-28T14:47:59.281Z,16.00
2018-09-28T14:50:27.868Z,16.10
2018-09-28T14:52:56.321Z,16.10
2018-09-28T14:55:24.908Z,16.20
2018-09-28T14:57:53.394Z,16.20
2018-09-28T15:00:22.281Z,16.10
2018-09-28T15:02:56.040Z,15.90
2018-09-28T15:05:24.519Z,15.70
2018-09-28T15:07:53.014Z,15.70
2018-09-28T15:10:21.517Z,15.60
2018-09-28T15:12:50.016Z,15.50
2018-09-28T15:15:18.664Z,15.40
2018-09-28T15:17:47.121Z,15.30
2018-09-28T15:20:15.720Z,15.30
2018-09-28T15:22:44.198Z,15.30
2018-09-28T15:25:12.667Z,15.40
2018-09-28T15:27:41.173Z,15.30
2018-09-28T15:30:09.769Z,15.50
2018-09-28T15:32:38.310Z,15.50
2018-09-28T15:35:06.860Z,15.60
2018-09-28T15:37:35.370Z,15.60
2018-09-28T15:40:03.965Z,15.60
2018-09-28T15:42:32.424Z,15.60
2018-09-28T15:45:00.937Z,15.60
2018-09-28T15:47:29.432Z,15.60
2018-09-28T15:49:57.967Z,15.60
2018-09-28T15:52:27.590Z,15.60
2018-09-28T15:54:56.053Z,15.60
2018-09-28T15:57:24.517Z,15.50
2018-09-28T15:59:52.942Z,15.50
2018-09-28T16:02:21.438Z,15.50
2018-09-28T16:04:50.013Z,15.50
2018-09-28T16:07:18.572Z,15.40
2018-09-28T16:09:47.045Z,15.40
2018-09-28T16:12:15.537Z,15.40
2018-09-28T16:14:44.008Z,15.30
2018-09-28T16:17:12.476Z,15.30
2018-09-28T16:19:41.199Z,15.20
2018-09-28T16:22:09.674Z,15.20
2018-09-28T16:24:38.167Z,15.20
2018-09-28T16:27:06.806Z,15.10
2018-09-28T16:29:35.306Z,15.10
2018-09-28T16:32:03.802Z,15.00
2018-09-28T16:34:32.304Z,14.90
2018-09-28T16:37:00.828Z,14.90
2018-09-28T16:39:29.307Z,14.80
2018-09-28T16:41:57.788Z,14.70
2018-09-28T16:44:26.359Z,14.60
2018-09-28T16:46:54.801Z,14.60
2018-09-28T16:49:23.321Z,14.50
2018-09-28T16:51:51.789Z,14.50
2018-09-28T16:54:20.262Z,14.40
2018-09-28T16:56:48.767Z,14.30
2018-09-28T16:59:17.216Z,14.30
2018-09-28T17:01:45.902Z,14.10
2018-09-28T17:04:15.020Z,14.10
2018-09-28T17:06:43.855Z,14.00
2018-09-28T17:09:12.485Z,14.00
2018-09-28T17:11:41.354Z,14.00
2018-09-28T17:14:09.854Z,13.80
2018-09-28T17:16:38.373Z,13.80
2018-09-28T17:19:06.996Z,13.80
2018-09-28T17:21:35.438Z,13.70
2018-09-28T17:24:04.009Z,13.70
2018-09-28T17:26:32.504Z,13.60
2018-09-28T17:29:01.789Z,13.60
2018-09-28T17:31:30.258Z,13.50
2018-09-28T17:33:59.379Z,13.50
2018-09-28T17:36:27.839Z,13.40
2018-09-28T17:38:56.332Z,13.30
2018-09-28T17:41:24.858Z,13.30
2018-09-28T17:43:53.281Z,13.20
2018-09-28T17:46:21.784Z,13.10
2018-09-28T17:48:50.311Z,13.10
2018-09-28T17:51:18.799Z,13.00
2018-09-28T17:53:47.278Z,13.00
2018-09-28T17:56:15.849Z,12.90
2018-09-28T17:58:44.322Z,12.80
2018-09-28T18:01:12.801Z,12.80
2018-09-28T18:03:41.285Z,12.70
2018-09-28T18:06:09.746Z,12.70
2018-09-28T18:08:38.196Z,12.70
2018-09-28T18:11:06.915Z,12.60
2018-09-28T18:13:35.369Z,12.60
2018-09-28T18:16:03.821Z,12.50
2018-09-28T18:18:32.316Z,12.50
2018-09-28T18:21:00.758Z,12.40
2018-09-28T18:23:29.236Z,12.40
2018-09-28T18:25:57.769Z,12.30
2018-09-28T18:28:26.321Z,12.30
2018-09-28T18:30:54.789Z,12.30
2018-09-28T18:33:23.327Z,12.20
2018-09-28T18:35:51.806Z,12.20
2018-09-28T18:38:20.253Z,12.20
2018-09-28T18:40:48.834Z,12.10
2018-09-28T18:43:17.427Z,12.10
2018-09-28T18:45:46.002Z,12.10
2018-09-28T18:48:14.569Z,12.10
2018-09-28T18:50:43.068Z,12.00
2018-09-28T18:53:11.661Z,12.10
2018-09-28T18:55:40.104Z,12.00
2018-09-28T18:58:08.552Z,12.00
2018-09-28T19:00:37.029Z,12.00
2018-09-28T19:03:05.534Z,12.00
2018-09-28T19:05:34.778Z,12.00
2018-09-28T19:08:03.313Z,12.00
2018-09-28T19:10:31.800Z,11.90
2018-09-28T19:13:00.357Z,11.90
2018-09-28T19:15:28.774Z,11.90
2018-09-28T19:17:57.388Z,11.90
2018-09-28T19:20:25.895Z,11.90
2018-09-28T19:22:54.358Z,11.80
2018-09-28T19:25:22.842Z,11.80
2018-09-28T19:27:51.381Z,11.80
2018-09-28T19:30:21.350Z,11.70
2018-09-28T19:32:49.851Z,11.70
2018-09-28T19:35:18.395Z,11.60
2018-09-28T19:37:46.884Z,11.60
2018-09-28T19:40:15.378Z,11.50
2018-09-28T19:42:43.837Z,11.50
2018-09-28T19:45:12.336Z,11.40
2018-09-28T19:47:40.801Z,11.40
2018-09-28T19:50:09.297Z,11.30
2018-09-28T19:52:38.007Z,11.30
2018-09-28T19:55:06.579Z,11.20
2018-09-28T19:57:35.036Z,11.20
2018-09-28T20:00:03.524Z,11.10
2018-09-28T20:02:32.046Z,11.10
2018-09-28T20:05:00.799Z,11.00
2018-09-28T20:07:29.312Z,11.00
2018-09-28T20:09:57.798Z,10.90
2018-09-28T20:12:26.275Z,10.90
2018-09-28T20:14:54.765Z,10.90
2018-09-28T20:17:23.239Z,10.90
2018-09-28T20:19:51.729Z,10.80
2018-09-28T20:22:20.213Z,10.80
2018-09-28T20:24:48.671Z,10.80
2018-09-28T20:27:17.149Z,10.70
2018-09-28T20:29:45.622Z,10.70
2018-09-28T20:32:14.190Z,10.60
2018-09-28T20:34:42.646Z,10.60
2018-09-28T20:37:11.142Z,10.60
2018-09-28T20:39:39.636Z,10.50
2018-09-28T20:42:08.110Z,10.50
2018-09-28T20:44:36.605Z,10.50
2018-09-28T20:47:05.157Z,10.40
2018-09-28T20:49:33.632Z,10.40
2018-09-28T20:52:02.269Z,10.40
2018-09-28T20:54:30.752Z,10.30
2018-09-28T20:56:59.409Z,10.30
2018-09-28T20:59:27.907Z,10.20
2018-09-28T21:01:56.415Z,10.20
2018-09-28T21:04:24.890Z,10.20
2018-09-28T21:06:53.362Z,10.20
2018-09-28T21:09:21.853Z,10.10
2018-09-28T21:11:50.417Z,10.10
2018-09-28T21:14:19.054Z,10.10
2018-09-28T21:16:47.533Z,10.10
2018-09-28T21:19:16.009Z,10.00
2018-09-28T21:21:44.461Z,10.00
2018-09-28T21:24:12.981Z,10.00
2018-09-28T21:26:41.466Z,9.90
2018-09-28T21:29:09.915Z,9.90
2018-09-28T21:31:38.401Z,9.80
2018-09-28T21:34:06.859Z,9.80
2018-09-28T21:36:35.405Z,9.80
2018-09-28T21:39:05.166Z,9.80
2018-09-28T21:41:33.773Z,9.80
2018-09-28T21:44:02.268Z,9.70
2018-09-28T21:46:30.757Z,9.70
2018-09-28T21:48:59.304Z,9.70
2018-09-28T21:51:27.796Z,9.70
2018-09-28T21:53:56.381Z,9.60
2018-09-28T21:56:24.805Z,9.60
2018-09-28T21:58:53.231Z,9.60
2018-09-28T22:01:21.671Z,9.60
2018-09-28T22:03:51.093Z,9.50
2018-09-28T22:06:19.541Z,9.50
2018-09-28T22:08:47.991Z,9.50
2018-09-28T22:11:16.511Z,9.40
2018-09-28T22:13:45.152Z,9.40
2018-09-28T22:16:13.628Z,9.40
2018-09-28T22:18:42.535Z,9.30
2018-09-28T22:21:10.963Z,9.30
2018-09-28T22:23:39.570Z,9.30
2018-09-28T22:26:08.028Z,9.30
2018-09-28T22:28:36.467Z,9.30
2018-09-28T22:31:04.937Z,9.30
2018-09-28T22:33:33.388Z,9.20
2018-09-28T22:36:01.916Z,9.20
2018-09-28T22:38:30.398Z,9.20
2018-09-28T22:40:58.832Z,9.20
2018-09-28T22:43:27.375Z,9.10
2018-09-28T22:45:55.826Z,9.10
2018-09-28T22:48:24.356Z,9.10
2018-09-28T22:50:52.826Z,9.10
2018-09-28T22:53:21.286Z,9.10
2018-09-28T22:55:49.791Z,9.00
2018-09-28T22:58:18.243Z,9.10
2018-09-28T23:00:46.788Z,9.00
2018-09-28T23:03:15.823Z,9.00
2018-09-28T23:05:44.265Z,9.00
2018-09-28T23:08:12.713Z,9.00
2018-09-28T23:10:41.261Z,9.00
2018-09-28T23:13:09.692Z,9.00
2018-09-28T23:15:38.143Z,9.00
2018-09-28T23:18:06.572Z,9.00
2018-09-28T23:20:35.016Z,9.00
2018-09-28T23:23:03.466Z,9.00
2018-09-28T23:25:31.900Z,9.00
2018-09-28T23:28:00.373Z,8.90
2018-09-28T23:30:28.938Z,8.90
2018-09-28T23:32:57.531Z,8.90
2018-09-28T23:35:25.973Z,8.90
2018-09-28T23:37:54.468Z,8.90
2018-09-28T23:40:23.004Z,8.90
2018-09-28T23:42:51.457Z,8.90
2018-09-28T23:45:19.896Z,8.80
2018-09-28T23:47:48.330Z,8.90
2018-09-28T23:50:16.778Z,8.80
2018-09-28T23:52:45.250Z,8.80
2018-09-28T23:55:13.687Z,8.80
2018-09-28T23:57:42.245Z,8.80
